sensor_id;sensor_type;location;lat;lon;timestamp;pressure;altitude;pressure_sealevel;temperature;humidity
10006;BME280;5042;42.626;23.382;2023-08-01T00:01:29;94083.63;;;21.40;100.00
10006;BME280;5042;42.626;23.382;2023-08-01T00:03:56;94078.78;;;21.37;100.00
10006;BME280;5042;42.626;23.382;2023-08-01T00:06:22;94068.88;;;21.17;100.00
10006;BME280;5042;42.626;23.382;2023-08-01T00:08:50;94087.09;;;21.41;100.00
10006;BME280;5042;42.626;23.382;2023-08-01T00:11:17;94081.50;;;21.42;100.00
10006;BME280;5042;42.626;23.382;2023-08-01T00:13:45;94083.56;;;21.35;100.00
10006;BME280;5042;42.626;23.382;2023-08-01T00:16:11;94084.63;;;21.24;100.00
10006;BME280;5042;42.626;23.382;2023-08-01T00:18:38;94080.06;;;21.14;100.00
10006;BME280;5042;42.626;23.382;2023-08-01T00:21:05;94079.69;;;20.85;100.00
10006;BME280;5042;42.626;23.382;2023-08-01T00:23:35;94080.03;;;20.46;100.00
10006;BME280;5042;42.626;23.382;2023-08-01T00:26:02;94073.06;;;20.02;100.00
10006;BME280;5042;42.626;23.382;2023-08-01T00:28:29;94072.81;;;19.72;100.00
10006;BME280;5042;42.626;23.382;2023-08-01T00:31:03;94077.47;;;19.59;100.00
10006;BME280;5042;42.626;23.382;2023-08-01T00:33:30;94077.03;;;19.40;100.00
10006;BME280;5042;42.626;23.382;2023-08-01T00:35:56;94076.44;;;19.33;100.00
10006;BME280;5042;42.626;23.382;2023-08-01T00:38:23;94080.16;;;19.32;100.00
10006;BME280;5042;42.626;23.382;2023-08-01T00:40:50;94086.28;;;19.33;100.00
10006;BME280;5042;42.626;23.382;2023-08-01T00:43:17;94079.09;;;19.33;100.00
10006;BME280;5042;42.626;23.382;2023-08-01T00:45:45;94085.91;;;19.24;100.00
10006;BME280;5042;42.626;23.382;2023-08-01T00:48:13;94088.72;;;19.12;100.00
10006;BME280;5042;42.626;23.382;2023-08-01T00:50:40;94082.91;;;19.15;100.00
10006;BME280;5042;42.626;23.382;2023-08-01T00:53:07;94080.81;;;19.17;100.00
10006;BME280;5042;42.626;23.382;2023-08-01T00:55:34;94083.63;;;19.05;100.00
10006;BME280;5042;42.626;23.382;2023-08-01T00:58:01;94075.97;;;19.14;100.00
10006;BME280;5042;42.626;23.382;2023-08-01T01:00:28;94071.28;;;19.21;100.00
10006;BME280;5042;42.626;23.382;2023-08-01T01:02:55;94065.75;;;19.28;100.00
10006;BME280;5042;42.626;23.382;2023-08-01T01:05:24;94064.19;;;19.27;100.00
10006;BME280;5042;42.626;23.382;2023-08-01T01:07:52;94064.19;;;19.27;100.00
10006;BME280;5042;42.626;23.382;2023-08-01T01:10:19;94051.28;;;19.14;100.00
10006;BME280;5042;42.626;23.382;2023-08-01T01:12:45;94054.91;;;19.07;100.00
10006;BME280;5042;42.626;23.382;2023-08-01T01:15:12;94056.81;;;19.12;100.00
10006;BME280;5042;42.626;23.382;2023-08-01T01:17:39;94058.59;;;19.01;100.00
10006;BME280;5042;42.626;23.382;2023-08-01T01:20:06;94063.09;;;19.01;100.00
10006;BME280;5042;42.626;23.382;2023-08-01T01:22:36;94058.13;;;19.10;100.00
10006;BME280;5042;42.626;23.382;2023-08-01T01:25:05;94050.81;;;19.22;100.00
10006;BME280;5042;42.626;23.382;2023-08-01T01:27:35;94045.66;;;19.37;100.00
10006;BME280;5042;42.626;23.382;2023-08-01T01:30:03;94045.25;;;19.23;100.00
10006;BME280;5042;42.626;23.382;2023-08-01T01:32:32;94045.91;;;19.09;100.00
10006;BME280;5042;42.626;23.382;2023-08-01T01:34:59;94045.59;;;19.05;100.00
10006;BME280;5042;42.626;23.382;2023-08-01T01:37:27;94047.69;;;19.03;100.00
10006;BME280;5042;42.626;23.382;2023-08-01T01:39:55;94050.63;;;19.01;100.00
10006;BME280;5042;42.626;23.382;2023-08-01T01:42:22;94036.78;;;18.99;100.00
10006;BME280;5042;42.626;23.382;2023-08-01T01:44:48;94039.69;;;18.98;100.00
10006;BME280;5042;42.626;23.382;2023-08-01T01:47:15;94043.69;;;19.00;100.00
10006;BME280;5042;42.626;23.382;2023-08-01T01:49:42;94031.88;;;19.13;100.00
10006;BME280;5042;42.626;23.382;2023-08-01T01:52:08;94038.78;;;19.14;100.00
10006;BME280;5042;42.626;23.382;2023-08-01T01:54:35;94038.44;;;19.05;100.00
10006;BME280;5042;42.626;23.382;2023-08-01T01:57:03;94040.97;;;18.95;100.00
10006;BME280;5042;42.626;23.382;2023-08-01T01:59:30;94055.28;;;18.89;100.00
10006;BME280;5042;42.626;23.382;2023-08-01T02:01:57;94053.47;;;18.73;100.00
10006;BME280;5042;42.626;23.382;2023-08-01T02:04:25;94053.13;;;18.69;100.00
10006;BME280;5042;42.626;23.382;2023-08-01T02:06:51;94049.59;;;18.80;100.00
10006;BME280;5042;42.626;23.382;2023-08-01T02:09:20;94049.91;;;18.84;100.00
10006;BME280;5042;42.626;23.382;2023-08-01T02:11:46;94049.44;;;18.70;100.00
10006;BME280;5042;42.626;23.382;2023-08-01T02:14:14;94043.81;;;18.67;100.00
10006;BME280;5042;42.626;23.382;2023-08-01T02:16:41;94044.59;;;18.67;100.00
10006;BME280;5042;42.626;23.382;2023-08-01T02:19:08;94052.28;;;18.63;100.00
10006;BME280;5042;42.626;23.382;2023-08-01T02:21:34;94051.66;;;18.56;100.00
10006;BME280;5042;42.626;23.382;2023-08-01T02:24:01;94049.06;;;18.61;100.00
10006;BME280;5042;42.626;23.382;2023-08-01T02:26:28;94045.63;;;18.61;100.00
10006;BME280;5042;42.626;23.382;2023-08-01T02:28:55;94045.00;;;18.54;100.00
10006;BME280;5042;42.626;23.382;2023-08-01T02:31:23;94048.50;;;18.59;100.00
10006;BME280;5042;42.626;23.382;2023-08-01T02:33:50;94046.59;;;18.55;100.00
10006;BME280;5042;42.626;23.382;2023-08-01T02:36:16;94030.09;;;18.31;100.00
10006;BME280;5042;42.626;23.382;2023-08-01T02:38:43;94051.38;;;18.36;100.00
10006;BME280;5042;42.626;23.382;2023-08-01T02:41:10;94050.03;;;18.33;100.00
10006;BME280;5042;42.626;23.382;2023-08-01T02:43:36;94047.13;;;18.35;100.00
10006;BME280;5042;42.626;23.382;2023-08-01T02:46:03;94048.91;;;18.29;100.00
10006;BME280;5042;42.626;23.382;2023-08-01T02:48:32;94042.97;;;18.39;100.00
10006;BME280;5042;42.626;23.382;2023-08-01T02:51:00;94042.75;;;18.46;100.00
10006;BME280;5042;42.626;23.382;2023-08-01T02:53:27;94044.19;;;18.53;100.00
10006;BME280;5042;42.626;23.382;2023-08-01T02:55:54;94038.94;;;18.58;100.00
10006;BME280;5042;42.626;23.382;2023-08-01T02:58:21;94042.34;;;18.76;100.00
10006;BME280;5042;42.626;23.382;2023-08-01T03:00:47;94046.44;;;18.83;100.00
10006;BME280;5042;42.626;23.382;2023-08-01T03:03:14;94043.31;;;18.70;100.00
10006;BME280;5042;42.626;23.382;2023-08-01T03:05:42;94038.28;;;18.46;100.00
10006;BME280;5042;42.626;23.382;2023-08-01T03:08:09;94044.44;;;18.30;100.00
10006;BME280;5042;42.626;23.382;2023-08-01T03:10:35;94043.63;;;18.12;100.00
10006;BME280;5042;42.626;23.382;2023-08-01T03:13:02;94046.66;;;17.99;100.00
10006;BME280;5042;42.626;23.382;2023-08-01T03:15:29;94045.53;;;17.95;100.00
10006;BME280;5042;42.626;23.382;2023-08-01T03:17:56;94043.81;;;17.89;100.00
10006;BME280;5042;42.626;23.382;2023-08-01T03:20:23;94006.47;;;17.73;100.00
10006;BME280;5042;42.626;23.382;2023-08-01T03:22:51;94038.69;;;17.99;100.00
10006;BME280;5042;42.626;23.382;2023-08-01T03:25:18;94044.13;;;18.09;100.00
10006;BME280;5042;42.626;23.382;2023-08-01T03:27:44;94036.81;;;18.16;100.00
10006;BME280;5042;42.626;23.382;2023-08-01T03:30:11;94042.25;;;18.27;100.00
10006;BME280;5042;42.626;23.382;2023-08-01T03:32:38;94042.63;;;18.35;100.00
10006;BME280;5042;42.626;23.382;2023-08-01T03:35:05;94040.03;;;18.40;100.00
10006;BME280;5042;42.626;23.382;2023-08-01T03:37:32;94017.34;;;18.28;100.00
10006;BME280;5042;42.626;23.382;2023-08-01T03:40:00;94058.22;;;18.71;100.00
10006;BME280;5042;42.626;23.382;2023-08-01T03:42:27;94061.84;;;18.64;100.00
10006;BME280;5042;42.626;23.382;2023-08-01T03:44:54;94063.72;;;18.25;100.00
10006;BME280;5042;42.626;23.382;2023-08-01T03:47:21;94055.41;;;17.99;100.00
10006;BME280;5042;42.626;23.382;2023-08-01T03:49:48;94064.72;;;18.02;100.00
10006;BME280;5042;42.626;23.382;2023-08-01T03:52:14;94073.88;;;17.77;100.00
10006;BME280;5042;42.626;23.382;2023-08-01T03:54:41;94065.72;;;17.67;100.00
10006;BME280;5042;42.626;23.382;2023-08-01T03:57:09;94067.44;;;17.56;100.00
10006;BME280;5042;42.626;23.382;2023-08-01T03:59:36;94069.03;;;17.57;100.00
10006;BME280;5042;42.626;23.382;2023-08-01T04:02:03;94061.72;;;17.65;100.00
10006;BME280;5042;42.626;23.382;2023-08-01T04:04:30;94066.47;;;17.79;100.00
10006;BME280;5042;42.626;23.382;2023-08-01T04:06:57;94040.78;;;17.97;100.00
10006;BME280;5042;42.626;23.382;2023-08-01T04:09:24;94083.44;;;18.12;100.00
10006;BME280;5042;42.626;23.382;2023-08-01T04:11:50;94082.53;;;18.23;100.00
10006;BME280;5042;42.626;23.382;2023-08-01T04:14:18;94077.75;;;18.64;100.00
10006;BME280;5042;42.626;23.382;2023-08-01T04:16:45;94073.59;;;19.13;100.00
10006;BME280;5042;42.626;23.382;2023-08-01T04:19:12;94086.50;;;19.31;100.00
10006;BME280;5042;42.626;23.382;2023-08-01T04:21:39;94080.88;;;19.22;100.00
10006;BME280;5042;42.626;23.382;2023-08-01T04:24:06;94086.03;;;19.34;100.00
10006;BME280;5042;42.626;23.382;2023-08-01T04:26:32;94080.09;;;19.54;100.00
10006;BME280;5042;42.626;23.382;2023-08-01T04:28:59;94079.22;;;19.70;100.00
10006;BME280;5042;42.626;23.382;2023-08-01T04:31:27;94084.53;;;19.70;100.00
10006;BME280;5042;42.626;23.382;2023-08-01T04:33:54;94094.03;;;19.66;100.00
10006;BME280;5042;42.626;23.382;2023-08-01T04:36:20;94084.81;;;19.74;100.00
10006;BME280;5042;42.626;23.382;2023-08-01T04:38:47;94081.88;;;20.03;100.00
10006;BME280;5042;42.626;23.382;2023-08-01T04:41:14;94078.59;;;20.33;100.00
10006;BME280;5042;42.626;23.382;2023-08-01T04:43:40;94082.56;;;20.68;100.00
10006;BME280;5042;42.626;23.382;2023-08-01T04:46:07;94087.56;;;21.22;100.00
10006;BME280;5042;42.626;23.382;2023-08-01T04:48:35;94091.69;;;21.86;100.00
10006;BME280;5042;42.626;23.382;2023-08-01T04:51:02;94086.34;;;22.42;100.00
10006;BME280;5042;42.626;23.382;2023-08-01T04:53:28;94086.16;;;23.04;100.00
10006;BME280;5042;42.626;23.382;2023-08-01T04:55:55;94081.53;;;23.75;100.00
10006;BME280;5042;42.626;23.382;2023-08-01T04:58:22;94087.31;;;23.92;100.00
10006;BME280;5042;42.626;23.382;2023-08-01T05:00:48;94089.09;;;24.31;100.00
10006;BME280;5042;42.626;23.382;2023-08-01T05:03:15;94076.63;;;24.98;100.00
10006;BME280;5042;42.626;23.382;2023-08-01T05:05:43;94081.22;;;25.60;99.81
10006;BME280;5042;42.626;23.382;2023-08-01T05:08:10;94085.28;;;25.95;100.00
10006;BME280;5042;42.626;23.382;2023-08-01T05:10:36;94095.16;;;26.00;94.93
10006;BME280;5042;42.626;23.382;2023-08-01T05:13:03;94090.78;;;26.37;94.63
10006;BME280;5042;42.626;23.382;2023-08-01T05:15:30;94084.28;;;25.91;90.07
10006;BME280;5042;42.626;23.382;2023-08-01T05:17:56;94082.66;;;25.33;95.78
10006;BME280;5042;42.626;23.382;2023-08-01T05:20:23;94089.56;;;25.39;94.85
10006;BME280;5042;42.626;23.382;2023-08-01T05:22:57;94081.22;;;25.17;100.00
10006;BME280;5042;42.626;23.382;2023-08-01T05:25:24;94090.69;;;25.33;98.82
10006;BME280;5042;42.626;23.382;2023-08-01T05:27:51;94092.75;;;25.60;96.40
10006;BME280;5042;42.626;23.382;2023-08-01T05:30:17;94095.56;;;25.69;94.76
10006;BME280;5042;42.626;23.382;2023-08-01T05:32:44;94085.63;;;26.08;94.76
10006;BME280;5042;42.626;23.382;2023-08-01T05:35:12;94093.06;;;25.97;89.25
10006;BME280;5042;42.626;23.382;2023-08-01T05:37:39;94095.63;;;26.21;88.04
10006;BME280;5042;42.626;23.382;2023-08-01T05:40:08;94089.41;;;26.39;87.32
10006;BME280;5042;42.626;23.382;2023-08-01T05:42:35;94093.34;;;26.61;84.26
10006;BME280;5042;42.626;23.382;2023-08-01T05:45:02;94091.78;;;26.88;90.47
10006;BME280;5042;42.626;23.382;2023-08-01T05:47:30;94097.66;;;27.31;79.89
10006;BME280;5042;42.626;23.382;2023-08-01T05:49:57;94102.56;;;27.79;79.11
10006;BME280;5042;42.626;23.382;2023-08-01T05:52:24;94104.41;;;28.38;75.22
10006;BME280;5042;42.626;23.382;2023-08-01T05:54:50;94095.72;;;28.63;66.84
10006;BME280;5042;42.626;23.382;2023-08-01T05:57:19;94099.38;;;28.99;66.58
10006;BME280;5042;42.626;23.382;2023-08-01T05:59:45;94096.31;;;29.23;65.23
10006;BME280;5042;42.626;23.382;2023-08-01T06:02:12;94093.78;;;29.35;62.83
10006;BME280;5042;42.626;23.382;2023-08-01T06:04:39;94099.97;;;29.27;65.12
10006;BME280;5042;42.626;23.382;2023-08-01T06:07:06;94098.50;;;29.21;65.22
10006;BME280;5042;42.626;23.382;2023-08-01T06:09:32;94095.84;;;28.89;64.54
10006;BME280;5042;42.626;23.382;2023-08-01T06:11:59;94105.53;;;28.59;62.18
10006;BME280;5042;42.626;23.382;2023-08-01T06:14:27;94099.00;;;28.51;64.10
10006;BME280;5042;42.626;23.382;2023-08-01T06:16:54;94096.53;;;28.41;64.21
10006;BME280;5042;42.626;23.382;2023-08-01T06:19:20;94093.84;;;28.41;67.50
10006;BME280;5042;42.626;23.382;2023-08-01T06:21:47;94101.22;;;28.36;68.75
10006;BME280;5042;42.626;23.382;2023-08-01T06:24:14;94086.06;;;27.95;68.64
10006;BME280;5042;42.626;23.382;2023-08-01T06:26:41;94089.63;;;28.04;67.18
10006;BME280;5042;42.626;23.382;2023-08-01T06:29:07;94087.28;;;27.88;65.69
10006;BME280;5042;42.626;23.382;2023-08-01T06:31:35;94091.69;;;27.70;65.52
10006;BME280;5042;42.626;23.382;2023-08-01T06:34:02;94087.72;;;27.68;67.46
10006;BME280;5042;42.626;23.382;2023-08-01T06:36:29;94082.25;;;28.18;67.72
10006;BME280;5042;42.626;23.382;2023-08-01T06:38:57;94086.91;;;28.71;62.43
10006;BME280;5042;42.626;23.382;2023-08-01T06:41:24;94078.94;;;28.21;61.97
10006;BME280;5042;42.626;23.382;2023-08-01T06:43:50;94079.91;;;28.17;66.39
10006;BME280;5042;42.626;23.382;2023-08-01T06:46:17;94079.88;;;28.70;70.20
10006;BME280;5042;42.626;23.382;2023-08-01T06:48:45;94084.25;;;28.89;67.17
10006;BME280;5042;42.626;23.382;2023-08-01T06:51:12;94079.63;;;29.12;59.42
10006;BME280;5042;42.626;23.382;2023-08-01T06:53:39;94090.47;;;29.47;58.68
10006;BME280;5042;42.626;23.382;2023-08-01T06:56:05;94080.47;;;29.56;60.58
10006;BME280;5042;42.626;23.382;2023-08-01T06:58:32;94081.81;;;29.76;57.55
10006;BME280;5042;42.626;23.382;2023-08-01T07:00:59;94086.25;;;29.89;57.21
10006;BME280;5042;42.626;23.382;2023-08-01T07:03:25;94078.69;;;29.25;59.93
10006;BME280;5042;42.626;23.382;2023-08-01T07:05:53;94087.94;;;29.33;60.75
10006;BME280;5042;42.626;23.382;2023-08-01T07:08:20;94087.28;;;29.36;58.44
10006;BME280;5042;42.626;23.382;2023-08-01T07:10:47;94073.25;;;29.08;63.80
10006;BME280;5042;42.626;23.382;2023-08-01T07:13:14;94077.56;;;29.17;64.79
10006;BME280;5042;42.626;23.382;2023-08-01T07:15:42;94068.72;;;29.43;64.53
10006;BME280;5042;42.626;23.382;2023-08-01T07:18:08;94070.38;;;29.79;63.95
10006;BME280;5042;42.626;23.382;2023-08-01T07:20:35;94071.78;;;29.76;65.05
10006;BME280;5042;42.626;23.382;2023-08-01T07:23:03;94069.22;;;30.06;58.87
10006;BME280;5042;42.626;23.382;2023-08-01T07:25:30;94067.31;;;30.15;64.67
10006;BME280;5042;42.626;23.382;2023-08-01T07:27:56;94068.25;;;30.19;59.75
10006;BME280;5042;42.626;23.382;2023-08-01T07:30:24;94039.47;;;30.32;63.48
10006;BME280;5042;42.626;23.382;2023-08-01T07:32:50;94064.28;;;29.47;61.53
10006;BME280;5042;42.626;23.382;2023-08-01T07:35:17;94061.78;;;28.40;61.74
10006;BME280;5042;42.626;23.382;2023-08-01T07:37:44;94062.47;;;27.41;70.15
10006;BME280;5042;42.626;23.382;2023-08-01T07:40:12;94058.59;;;27.70;73.88
10006;BME280;5042;42.626;23.382;2023-08-01T07:42:38;94058.41;;;28.03;70.52
10006;BME280;5042;42.626;23.382;2023-08-01T07:45:06;94051.69;;;28.77;72.93
10006;BME280;5042;42.626;23.382;2023-08-01T07:47:33;94058.94;;;28.45;66.05
10006;BME280;5042;42.626;23.382;2023-08-01T07:50:00;94054.66;;;28.12;66.85
10006;BME280;5042;42.626;23.382;2023-08-01T07:52:26;94054.41;;;27.64;71.25
10006;BME280;5042;42.626;23.382;2023-08-01T07:54:53;94059.56;;;28.10;71.60
10006;BME280;5042;42.626;23.382;2023-08-01T07:57:24;94052.72;;;28.58;71.58
10006;BME280;5042;42.626;23.382;2023-08-01T07:59:50;94059.03;;;28.53;67.52
10006;BME280;5042;42.626;23.382;2023-08-01T08:02:17;94055.19;;;28.46;66.11
10006;BME280;5042;42.626;23.382;2023-08-01T08:04:44;94044.16;;;28.33;68.57
10006;BME280;5042;42.626;23.382;2023-08-01T08:07:10;94057.16;;;28.31;65.59
10006;BME280;5042;42.626;23.382;2023-08-01T08:09:37;94048.34;;;27.95;68.43
10006;BME280;5042;42.626;23.382;2023-08-01T08:12:04;94047.97;;;27.87;68.31
10006;BME280;5042;42.626;23.382;2023-08-01T08:14:33;94049.09;;;27.73;68.08
10006;BME280;5042;42.626;23.382;2023-08-01T08:16:59;94045.66;;;27.95;67.54
10006;BME280;5042;42.626;23.382;2023-08-01T08:19:26;94046.31;;;28.23;66.11
10006;BME280;5042;42.626;23.382;2023-08-01T08:21:53;94038.69;;;28.79;72.38
10006;BME280;5042;42.626;23.382;2023-08-01T08:24:20;94038.06;;;29.48;63.96
10006;BME280;5042;42.626;23.382;2023-08-01T08:26:46;94034.75;;;29.77;61.64
10006;BME280;5042;42.626;23.382;2023-08-01T08:29:13;94036.66;;;30.02;60.53
10006;BME280;5042;42.626;23.382;2023-08-01T08:31:41;94041.19;;;30.54;60.55
10006;BME280;5042;42.626;23.382;2023-08-01T08:34:08;94036.47;;;30.90;69.88
10006;BME280;5042;42.626;23.382;2023-08-01T08:36:34;94032.13;;;30.97;55.32
10006;BME280;5042;42.626;23.382;2023-08-01T08:39:01;94031.44;;;30.62;59.09
10006;BME280;5042;42.626;23.382;2023-08-01T08:41:37;94031.34;;;30.79;55.10
10006;BME280;5042;42.626;23.382;2023-08-01T08:44:07;94025.94;;;30.79;53.70
10006;BME280;5042;42.626;23.382;2023-08-01T08:46:38;94022.34;;;31.05;56.68
10006;BME280;5042;42.626;23.382;2023-08-01T08:49:08;94013.09;;;31.06;51.83
10006;BME280;5042;42.626;23.382;2023-08-01T08:51:36;94016.59;;;30.21;53.77
10006;BME280;5042;42.626;23.382;2023-08-01T08:54:05;94005.53;;;29.79;56.28
10006;BME280;5042;42.626;23.382;2023-08-01T08:56:33;93974.69;;;29.63;57.86
10006;BME280;5042;42.626;23.382;2023-08-01T08:59:00;94007.84;;;30.33;53.67
10006;BME280;5042;42.626;23.382;2023-08-01T09:01:28;94011.69;;;29.97;53.01
10006;BME280;5042;42.626;23.382;2023-08-01T09:03:56;94008.56;;;29.69;54.74
10006;BME280;5042;42.626;23.382;2023-08-01T09:06:28;93998.31;;;30.27;53.79
10006;BME280;5042;42.626;23.382;2023-08-01T09:09:02;93993.44;;;30.97;55.31
10006;BME280;5042;42.626;23.382;2023-08-01T09:11:38;94004.53;;;31.04;52.46
10006;BME280;5042;42.626;23.382;2023-08-01T09:14:05;94001.31;;;30.72;51.06
10006;BME280;5042;42.626;23.382;2023-08-01T09:16:32;93961.94;;;30.07;52.25
10006;BME280;5042;42.626;23.382;2023-08-01T09:18:59;93988.19;;;29.63;53.73
10006;BME280;5042;42.626;23.382;2023-08-01T09:21:31;93930.16;;;28.99;55.05
10006;BME280;5042;42.626;23.382;2023-08-01T09:24:08;93982.22;;;29.00;58.71
10006;BME280;5042;42.626;23.382;2023-08-01T09:26:36;93992.00;;;29.70;63.69
10006;BME280;5042;42.626;23.382;2023-08-01T09:29:03;93984.47;;;30.28;58.09
10006;BME280;5042;42.626;23.382;2023-08-01T09:31:31;93984.59;;;30.40;57.59
10006;BME280;5042;42.626;23.382;2023-08-01T09:33:59;93972.44;;;29.91;57.00
10006;BME280;5042;42.626;23.382;2023-08-01T09:36:27;93977.06;;;29.73;57.69
10006;BME280;5042;42.626;23.382;2023-08-01T09:38:58;93980.81;;;30.15;58.71
10006;BME280;5042;42.626;23.382;2023-08-01T09:41:25;93976.19;;;30.72;59.57
10006;BME280;5042;42.626;23.382;2023-08-01T09:43:52;93980.34;;;30.99;54.77
10006;BME280;5042;42.626;23.382;2023-08-01T09:46:19;93976.59;;;30.82;55.03
10006;BME280;5042;42.626;23.382;2023-08-01T09:48:45;93983.81;;;30.70;51.63
10006;BME280;5042;42.626;23.382;2023-08-01T09:51:13;93974.38;;;30.46;52.11
10006;BME280;5042;42.626;23.382;2023-08-01T09:53:49;93972.97;;;30.78;60.31
10006;BME280;5042;42.626;23.382;2023-08-01T09:56:19;93965.56;;;31.17;58.99
10006;BME280;5042;42.626;23.382;2023-08-01T09:58:47;93968.63;;;31.37;54.06
10006;BME280;5042;42.626;23.382;2023-08-01T10:01:15;93962.88;;;31.38;52.96
10006;BME280;5042;42.626;23.382;2023-08-01T10:03:45;93955.44;;;31.35;51.78
10006;BME280;5042;42.626;23.382;2023-08-01T10:06:14;93951.19;;;31.25;50.69
10006;BME280;5042;42.626;23.382;2023-08-01T10:08:44;93946.34;;;31.40;54.88
10006;BME280;5042;42.626;23.382;2023-08-01T10:11:12;93937.88;;;31.75;52.14
10006;BME280;5042;42.626;23.382;2023-08-01T10:13:41;93936.09;;;32.00;56.89
10006;BME280;5042;42.626;23.382;2023-08-01T10:16:08;93931.50;;;32.25;63.80
10006;BME280;5042;42.626;23.382;2023-08-01T10:18:36;93927.34;;;32.40;53.15
10006;BME280;5042;42.626;23.382;2023-08-01T10:21:04;93928.81;;;32.62;51.80
10006;BME280;5042;42.626;23.382;2023-08-01T10:23:33;93928.03;;;32.61;50.83
10006;BME280;5042;42.626;23.382;2023-08-01T10:26:01;93915.72;;;32.64;48.80
10006;BME280;5042;42.626;23.382;2023-08-01T10:28:34;93925.22;;;32.70;47.55
10006;BME280;5042;42.626;23.382;2023-08-01T10:31:09;93923.28;;;32.70;52.71
10006;BME280;5042;42.626;23.382;2023-08-01T10:33:36;93928.72;;;32.83;49.04
10006;BME280;5042;42.626;23.382;2023-08-01T10:36:12;93921.31;;;32.95;51.68
10006;BME280;5042;42.626;23.382;2023-08-01T10:38:46;93911.38;;;33.00;52.27
10006;BME280;5042;42.626;23.382;2023-08-01T10:41:21;93909.38;;;32.84;56.17
10006;BME280;5042;42.626;23.382;2023-08-01T10:43:49;93907.81;;;32.59;56.87
10006;BME280;5042;42.626;23.382;2023-08-01T10:46:16;93912.78;;;32.57;51.56
10006;BME280;5042;42.626;23.382;2023-08-01T10:48:51;93894.47;;;32.66;49.90
10006;BME280;5042;42.626;23.382;2023-08-01T10:51:17;93896.22;;;32.86;53.63
10006;BME280;5042;42.626;23.382;2023-08-01T10:53:45;93895.44;;;32.86;52.13
10006;BME280;5042;42.626;23.382;2023-08-01T10:56:16;93890.34;;;32.97;52.87
10006;BME280;5042;42.626;23.382;2023-08-01T10:58:43;93885.97;;;32.67;51.66
10006;BME280;5042;42.626;23.382;2023-08-01T11:01:11;93887.31;;;31.79;50.53
10006;BME280;5042;42.626;23.382;2023-08-01T11:03:39;93886.28;;;30.96;50.08
10006;BME280;5042;42.626;23.382;2023-08-01T11:06:07;93871.53;;;30.63;53.70
10006;BME280;5042;42.626;23.382;2023-08-01T11:08:35;93877.22;;;30.71;49.59
10006;BME280;5042;42.626;23.382;2023-08-01T11:11:02;93877.59;;;30.81;61.78
10006;BME280;5042;42.626;23.382;2023-08-01T11:13:29;93867.94;;;30.72;53.13
10006;BME280;5042;42.626;23.382;2023-08-01T11:15:56;93868.72;;;30.51;51.59
10006;BME280;5042;42.626;23.382;2023-08-01T11:18:24;93873.28;;;30.59;53.51
10006;BME280;5042;42.626;23.382;2023-08-01T11:20:50;93863.25;;;30.90;53.53
10006;BME280;5042;42.626;23.382;2023-08-01T11:23:17;93862.84;;;31.00;56.98
10006;BME280;5042;42.626;23.382;2023-08-01T11:25:44;93857.13;;;31.01;51.66
10006;BME280;5042;42.626;23.382;2023-08-01T11:28:16;93853.38;;;31.06;50.83
10006;BME280;5042;42.626;23.382;2023-08-01T11:30:43;93855.75;;;31.28;54.13
10006;BME280;5042;42.626;23.382;2023-08-01T11:33:14;93815.22;;;30.99;49.16
10006;BME280;5042;42.626;23.382;2023-08-01T11:35:43;93850.75;;;30.47;46.26
10006;BME280;5042;42.626;23.382;2023-08-01T11:38:10;93844.47;;;30.34;47.52
10006;BME280;5042;42.626;23.382;2023-08-01T11:40:38;93802.34;;;29.94;48.94
10006;BME280;5042;42.626;23.382;2023-08-01T11:43:05;93848.78;;;30.56;56.83
10006;BME280;5042;42.626;23.382;2023-08-01T11:45:32;93840.69;;;30.85;51.70
10006;BME280;5042;42.626;23.382;2023-08-01T11:47:58;93842.50;;;31.15;48.18
10006;BME280;5042;42.626;23.382;2023-08-01T11:50:25;93826.22;;;31.36;49.85
10006;BME280;5042;42.626;23.382;2023-08-01T11:52:53;93842.16;;;31.71;47.24
10006;BME280;5042;42.626;23.382;2023-08-01T11:55:21;93825.41;;;31.56;46.26
10006;BME280;5042;42.626;23.382;2023-08-01T11:57:53;93827.47;;;31.72;46.72
10006;BME280;5042;42.626;23.382;2023-08-01T12:00:24;93818.88;;;31.69;45.95
10006;BME280;5042;42.626;23.382;2023-08-01T12:02:51;93825.44;;;31.35;43.88
10006;BME280;5042;42.626;23.382;2023-08-01T12:05:22;93816.28;;;31.27;43.20
10006;BME280;5042;42.626;23.382;2023-08-01T12:07:49;93805.97;;;30.58;46.01
10006;BME280;5042;42.626;23.382;2023-08-01T12:10:17;93818.69;;;30.36;44.37
10006;BME280;5042;42.626;23.382;2023-08-01T12:12:44;93805.72;;;30.21;45.00
10006;BME280;5042;42.626;23.382;2023-08-01T12:15:11;93803.34;;;30.19;45.13
10006;BME280;5042;42.626;23.382;2023-08-01T12:17:38;93798.00;;;30.40;50.13
10006;BME280;5042;42.626;23.382;2023-08-01T12:20:06;93802.06;;;30.47;44.58
10006;BME280;5042;42.626;23.382;2023-08-01T12:22:33;93796.16;;;30.53;45.11
10006;BME280;5042;42.626;23.382;2023-08-01T12:25:00;93790.75;;;30.74;47.58
10006;BME280;5042;42.626;23.382;2023-08-01T12:27:28;93788.06;;;30.95;53.49
10006;BME280;5042;42.626;23.382;2023-08-01T12:29:54;93785.81;;;30.55;47.22
10006;BME280;5042;42.626;23.382;2023-08-01T12:32:21;93784.38;;;29.98;47.82
10006;BME280;5042;42.626;23.382;2023-08-01T12:34:48;93779.16;;;29.37;48.95
10006;BME280;5042;42.626;23.382;2023-08-01T12:37:14;93773.91;;;29.50;48.59
10006;BME280;5042;42.626;23.382;2023-08-01T12:39:41;93768.34;;;29.55;48.86
10006;BME280;5042;42.626;23.382;2023-08-01T12:42:08;93768.72;;;29.83;48.63
10006;BME280;5042;42.626;23.382;2023-08-01T12:44:36;93775.25;;;30.12;50.54
10006;BME280;5042;42.626;23.382;2023-08-01T12:47:02;93765.81;;;30.48;49.66
10006;BME280;5042;42.626;23.382;2023-08-01T12:49:29;93773.13;;;30.89;48.34
10006;BME280;5042;42.626;23.382;2023-08-01T12:51:56;93769.06;;;31.16;46.82
10006;BME280;5042;42.626;23.382;2023-08-01T12:54:23;93773.81;;;31.19;47.80
10006;BME280;5042;42.626;23.382;2023-08-01T12:56:49;93770.31;;;31.19;44.17